Indianapolis (IND/KIND)

Map

Information

Location
Indianapolis, IN
Local Time
20:19 / 8:19 pm
GMT Time
00:19 / 12:19 am
Gates
Unassigned
No FAA reported delays
METAR KIND 222354Z 08010KT 10SM SCT250 03/M08 A3044 RMK AO2 SLP317 T00281078 10056 20022 56006
TAF KIND 222320Z 2300/2406 06010KT P6SM SCT250 FM230500 09006KT P6SM SCT250 FM231400 12008KT P6SM SCT200 FM232000 15009KT P6SM BKN130
  • No charts available